sensor_id;sensor_type;location;lat;lon;timestamp;P1;durP1;ratioP1;P2;durP2;ratioP2
69260;SDS011;56378;52.404;20.816;2023-03-23T00:01:14;44.67;;;23.38;;
69260;SDS011;56378;52.404;20.816;2023-03-23T00:03:48;45.87;;;23.47;;
69260;SDS011;56378;52.404;20.816;2023-03-23T00:06:15;45.17;;;23.30;;
69260;SDS011;56378;52.404;20.816;2023-03-23T00:08:43;45.25;;;23.10;;
69260;SDS011;56378;52.404;20.816;2023-03-23T00:11:14;43.40;;;22.13;;
69260;SDS011;56378;52.404;20.816;2023-03-23T00:13:43;43.28;;;22.30;;
69260;SDS011;56378;52.404;20.816;2023-03-23T00:16:11;44.17;;;23.00;;
69260;SDS011;56378;52.404;20.816;2023-03-23T00:18:47;46.00;;;22.42;;
69260;SDS011;56378;52.404;20.816;2023-03-23T00:21:21;41.13;;;21.75;;
69260;SDS011;56378;52.404;20.816;2023-03-23T00:23:57;41.20;;;21.75;;
69260;SDS011;56378;52.404;20.816;2023-03-23T00:26:24;42.20;;;20.98;;
69260;SDS011;56378;52.404;20.816;2023-03-23T00:28:53;40.77;;;20.63;;
69260;SDS011;56378;52.404;20.816;2023-03-23T00:31:19;39.72;;;20.85;;
69260;SDS011;56378;52.404;20.816;2023-03-23T00:33:45;47.70;;;21.42;;
69260;SDS011;56378;52.404;20.816;2023-03-23T00:36:11;42.23;;;21.80;;
69260;SDS011;56378;52.404;20.816;2023-03-23T00:38:38;44.08;;;21.63;;
69260;SDS011;56378;52.404;20.816;2023-03-23T00:41:05;39.03;;;20.35;;
69260;SDS011;56378;52.404;20.816;2023-03-23T00:43:31;41.27;;;20.93;;
69260;SDS011;56378;52.404;20.816;2023-03-23T00:46:01;41.95;;;20.40;;
69260;SDS011;56378;52.404;20.816;2023-03-23T00:48:28;43.38;;;21.55;;
69260;SDS011;56378;52.404;20.816;2023-03-23T00:50:54;38.85;;;20.30;;
69260;SDS011;56378;52.404;20.816;2023-03-23T00:53:21;40.90;;;19.98;;
69260;SDS011;56378;52.404;20.816;2023-03-23T00:55:47;40.27;;;21.20;;
69260;SDS011;56378;52.404;20.816;2023-03-23T00:58:13;44.30;;;22.95;;
69260;SDS011;56378;52.404;20.816;2023-03-23T01:00:41;47.60;;;23.85;;
69260;SDS011;56378;52.404;20.816;2023-03-23T01:03:07;49.53;;;24.63;;
69260;SDS011;56378;52.404;20.816;2023-03-23T01:05:37;47.53;;;22.15;;
69260;SDS011;56378;52.404;20.816;2023-03-23T01:08:04;50.97;;;22.87;;
69260;SDS011;56378;52.404;20.816;2023-03-23T01:10:31;58.60;;;24.73;;
69260;SDS011;56378;52.404;20.816;2023-03-23T01:13:03;47.20;;;22.38;;
69260;SDS011;56378;52.404;20.816;2023-03-23T01:15:30;45.50;;;21.50;;
69260;SDS011;56378;52.404;20.816;2023-03-23T01:17:56;43.73;;;21.07;;
69260;SDS011;56378;52.404;20.816;2023-03-23T01:20:23;42.80;;;20.65;;
69260;SDS011;56378;52.404;20.816;2023-03-23T01:22:51;43.55;;;19.98;;
69260;SDS011;56378;52.404;20.816;2023-03-23T01:25:18;38.88;;;18.83;;
69260;SDS011;56378;52.404;20.816;2023-03-23T01:27:44;38.17;;;19.07;;
69260;SDS011;56378;52.404;20.816;2023-03-23T01:30:10;43.57;;;20.20;;
69260;SDS011;56378;52.404;20.816;2023-03-23T01:32:37;35.05;;;17.83;;
69260;SDS011;56378;52.404;20.816;2023-03-23T01:35:04;35.60;;;18.27;;
69260;SDS011;56378;52.404;20.816;2023-03-23T01:37:30;33.15;;;17.45;;
69260;SDS011;56378;52.404;20.816;2023-03-23T01:39:56;34.40;;;17.60;;
69260;SDS011;56378;52.404;20.816;2023-03-23T01:42:23;37.30;;;18.30;;
69260;SDS011;56378;52.404;20.816;2023-03-23T01:47:16;34.37;;;18.30;;
69260;SDS011;56378;52.404;20.816;2023-03-23T01:49:44;34.55;;;17.40;;
69260;SDS011;56378;52.404;20.816;2023-03-23T01:52:15;34.15;;;17.02;;
69260;SDS011;56378;52.404;20.816;2023-03-23T01:54:46;32.42;;;17.15;;
69260;SDS011;56378;52.404;20.816;2023-03-23T01:57:15;32.53;;;17.17;;
69260;SDS011;56378;52.404;20.816;2023-03-23T01:59:42;33.83;;;17.43;;
69260;SDS011;56378;52.404;20.816;2023-03-23T02:02:10;36.70;;;16.67;;
69260;SDS011;56378;52.404;20.816;2023-03-23T02:04:37;34.33;;;17.30;;
69260;SDS011;56378;52.404;20.816;2023-03-23T02:07:04;34.30;;;17.45;;
69260;SDS011;56378;52.404;20.816;2023-03-23T02:09:31;34.30;;;17.85;;
69260;SDS011;56378;52.404;20.816;2023-03-23T02:11:57;38.07;;;19.27;;
69260;SDS011;56378;52.404;20.816;2023-03-23T02:14:26;39.97;;;21.10;;
69260;SDS011;56378;52.404;20.816;2023-03-23T02:22:30;34.28;;;17.73;;
69260;SDS011;56378;52.404;20.816;2023-03-23T02:31:11;37.17;;;17.42;;
69260;SDS011;56378;52.404;20.816;2023-03-23T02:34:04;41.00;;;19.35;;
69260;SDS011;56378;52.404;20.816;2023-03-23T02:36:38;35.80;;;17.95;;
69260;SDS011;56378;52.404;20.816;2023-03-23T02:39:31;34.50;;;17.87;;
69260;SDS011;56378;52.404;20.816;2023-03-23T02:42:07;36.13;;;18.33;;
69260;SDS011;56378;52.404;20.816;2023-03-23T02:44:36;36.00;;;19.45;;
69260;SDS011;56378;52.404;20.816;2023-03-23T02:47:06;36.28;;;18.95;;
69260;SDS011;56378;52.404;20.816;2023-03-23T02:49:36;34.83;;;18.08;;
69260;SDS011;56378;52.404;20.816;2023-03-23T02:52:08;33.20;;;16.90;;
69260;SDS011;56378;52.404;20.816;2023-03-23T02:54:40;35.38;;;18.88;;
69260;SDS011;56378;52.404;20.816;2023-03-23T02:57:08;39.45;;;21.25;;
69260;SDS011;56378;52.404;20.816;2023-03-23T02:59:34;40.30;;;21.20;;
69260;SDS011;56378;52.404;20.816;2023-03-23T03:04:52;37.17;;;19.60;;
69260;SDS011;56378;52.404;20.816;2023-03-23T03:10:36;48.05;;;24.08;;
69260;SDS011;56378;52.404;20.816;2023-03-23T03:13:31;45.27;;;21.33;;
69260;SDS011;56378;52.404;20.816;2023-03-23T03:16:19;34.03;;;17.08;;
69260;SDS011;56378;52.404;20.816;2023-03-23T03:18:59;35.38;;;17.70;;
69260;SDS011;56378;52.404;20.816;2023-03-23T03:21:36;32.95;;;16.67;;
69260;SDS011;56378;52.404;20.816;2023-03-23T03:24:05;32.10;;;17.40;;
69260;SDS011;56378;52.404;20.816;2023-03-23T03:26:36;35.87;;;18.60;;
69260;SDS011;56378;52.404;20.816;2023-03-23T03:29:10;34.10;;;18.20;;
69260;SDS011;56378;52.404;20.816;2023-03-23T03:31:37;34.00;;;18.58;;
69260;SDS011;56378;52.404;20.816;2023-03-23T03:34:04;35.85;;;19.02;;
69260;SDS011;56378;52.404;20.816;2023-03-23T03:36:34;35.27;;;17.50;;
69260;SDS011;56378;52.404;20.816;2023-03-23T03:39:01;33.70;;;18.80;;
69260;SDS011;56378;52.404;20.816;2023-03-23T03:41:30;30.65;;;16.55;;
69260;SDS011;56378;52.404;20.816;2023-03-23T03:43:56;38.33;;;17.27;;
69260;SDS011;56378;52.404;20.816;2023-03-23T03:46:21;36.45;;;18.23;;
69260;SDS011;56378;52.404;20.816;2023-03-23T03:48:51;32.88;;;16.83;;
69260;SDS011;56378;52.404;20.816;2023-03-23T03:51:17;34.10;;;17.63;;
69260;SDS011;56378;52.404;20.816;2023-03-23T03:53:43;36.83;;;19.33;;
69260;SDS011;56378;52.404;20.816;2023-03-23T03:56:09;35.43;;;18.27;;
69260;SDS011;56378;52.404;20.816;2023-03-23T03:58:35;36.17;;;18.63;;
69260;SDS011;56378;52.404;20.816;2023-03-23T04:01:01;37.00;;;17.33;;
69260;SDS011;56378;52.404;20.816;2023-03-23T04:03:28;33.97;;;17.08;;
69260;SDS011;56378;52.404;20.816;2023-03-23T04:05:54;31.00;;;17.93;;
69260;SDS011;56378;52.404;20.816;2023-03-23T04:08:23;33.00;;;17.65;;
69260;SDS011;56378;52.404;20.816;2023-03-23T04:10:48;33.70;;;17.52;;
69260;SDS011;56378;52.404;20.816;2023-03-23T04:13:15;36.13;;;17.77;;
69260;SDS011;56378;52.404;20.816;2023-03-23T04:15:40;31.88;;;18.02;;
69260;SDS011;56378;52.404;20.816;2023-03-23T04:18:06;35.60;;;17.67;;
69260;SDS011;56378;52.404;20.816;2023-03-23T04:20:33;34.47;;;16.63;;
69260;SDS011;56378;52.404;20.816;2023-03-23T04:22:59;32.80;;;17.30;;
69260;SDS011;56378;52.404;20.816;2023-03-23T04:25:26;33.40;;;17.45;;
69260;SDS011;56378;52.404;20.816;2023-03-23T04:27:53;36.42;;;18.48;;
69260;SDS011;56378;52.404;20.816;2023-03-23T04:30:23;33.20;;;18.10;;
69260;SDS011;56378;52.404;20.816;2023-03-23T04:32:51;33.10;;;17.52;;
69260;SDS011;56378;52.404;20.816;2023-03-23T04:35:20;33.08;;;16.45;;
69260;SDS011;56378;52.404;20.816;2023-03-23T04:37:47;34.72;;;17.48;;
69260;SDS011;56378;52.404;20.816;2023-03-23T04:40:13;36.35;;;17.63;;
69260;SDS011;56378;52.404;20.816;2023-03-23T04:42:40;38.60;;;18.30;;
69260;SDS011;56378;52.404;20.816;2023-03-23T04:45:11;33.45;;;17.40;;
69260;SDS011;56378;52.404;20.816;2023-03-23T04:47:46;33.47;;;17.92;;
69260;SDS011;56378;52.404;20.816;2023-03-23T04:50:18;31.52;;;16.58;;
69260;SDS011;56378;52.404;20.816;2023-03-23T04:52:45;31.60;;;15.77;;
69260;SDS011;56378;52.404;20.816;2023-03-23T04:55:11;29.60;;;15.47;;
69260;SDS011;56378;52.404;20.816;2023-03-23T04:57:37;29.52;;;16.33;;
69260;SDS011;56378;52.404;20.816;2023-03-23T05:00:04;33.90;;;16.80;;
69260;SDS011;56378;52.404;20.816;2023-03-23T05:02:36;32.65;;;16.80;;
69260;SDS011;56378;52.404;20.816;2023-03-23T05:05:04;33.13;;;16.00;;
69260;SDS011;56378;52.404;20.816;2023-03-23T05:07:31;33.15;;;16.83;;
69260;SDS011;56378;52.404;20.816;2023-03-23T05:09:57;32.28;;;16.27;;
69260;SDS011;56378;52.404;20.816;2023-03-23T05:12:23;33.20;;;16.43;;
69260;SDS011;56378;52.404;20.816;2023-03-23T05:14:48;30.83;;;15.95;;
69260;SDS011;56378;52.404;20.816;2023-03-23T05:17:14;30.25;;;16.27;;
69260;SDS011;56378;52.404;20.816;2023-03-23T05:19:44;29.10;;;15.57;;
69260;SDS011;56378;52.404;20.816;2023-03-23T05:22:13;34.80;;;16.00;;
69260;SDS011;56378;52.404;20.816;2023-03-23T05:24:39;31.55;;;16.20;;
69260;SDS011;56378;52.404;20.816;2023-03-23T05:27:08;32.35;;;16.83;;
69260;SDS011;56378;52.404;20.816;2023-03-23T05:29:35;31.42;;;16.70;;
69260;SDS011;56378;52.404;20.816;2023-03-23T05:32:02;33.03;;;16.60;;
69260;SDS011;56378;52.404;20.816;2023-03-23T05:34:29;28.63;;;15.77;;
69260;SDS011;56378;52.404;20.816;2023-03-23T05:36:57;34.50;;;16.35;;
69260;SDS011;56378;52.404;20.816;2023-03-23T05:39:28;31.30;;;16.50;;
69260;SDS011;56378;52.404;20.816;2023-03-23T05:41:54;35.25;;;18.02;;
69260;SDS011;56378;52.404;20.816;2023-03-23T05:44:20;30.27;;;15.37;;
69260;SDS011;56378;52.404;20.816;2023-03-23T05:46:46;30.70;;;14.98;;
69260;SDS011;56378;52.404;20.816;2023-03-23T05:49:13;28.67;;;14.67;;
69260;SDS011;56378;52.404;20.816;2023-03-23T05:51:41;29.30;;;15.35;;
69260;SDS011;56378;52.404;20.816;2023-03-23T05:54:11;24.25;;;13.32;;
69260;SDS011;56378;52.404;20.816;2023-03-23T05:56:38;26.17;;;13.40;;
69260;SDS011;56378;52.404;20.816;2023-03-23T05:59:04;27.50;;;13.83;;
69260;SDS011;56378;52.404;20.816;2023-03-23T06:01:29;27.50;;;13.85;;
69260;SDS011;56378;52.404;20.816;2023-03-23T06:03:56;26.95;;;14.00;;
69260;SDS011;56378;52.404;20.816;2023-03-23T06:06:26;27.23;;;13.93;;
69260;SDS011;56378;52.404;20.816;2023-03-23T06:08:54;28.57;;;14.93;;
69260;SDS011;56378;52.404;20.816;2023-03-23T06:11:21;27.50;;;14.07;;
69260;SDS011;56378;52.404;20.816;2023-03-23T06:13:48;22.75;;;10.77;;
69260;SDS011;56378;52.404;20.816;2023-03-23T06:16:14;26.92;;;13.55;;
69260;SDS011;56378;52.404;20.816;2023-03-23T06:18:40;23.00;;;11.93;;
69260;SDS011;56378;52.404;20.816;2023-03-23T06:21:07;26.30;;;12.65;;
69260;SDS011;56378;52.404;20.816;2023-03-23T06:23:34;21.55;;;12.07;;
69260;SDS011;56378;52.404;20.816;2023-03-23T06:26:00;22.83;;;11.15;;
69260;SDS011;56378;52.404;20.816;2023-03-23T06:28:28;23.15;;;11.65;;
69260;SDS011;56378;52.404;20.816;2023-03-23T06:30:54;21.97;;;10.23;;
69260;SDS011;56378;52.404;20.816;2023-03-23T06:33:20;21.95;;;10.68;;
69260;SDS011;56378;52.404;20.816;2023-03-23T06:35:46;21.33;;;10.65;;
69260;SDS011;56378;52.404;20.816;2023-03-23T06:38:13;21.97;;;11.23;;
69260;SDS011;56378;52.404;20.816;2023-03-23T06:40:39;21.23;;;11.52;;
69260;SDS011;56378;52.404;20.816;2023-03-23T06:43:05;20.60;;;10.60;;
69260;SDS011;56378;52.404;20.816;2023-03-23T06:45:30;20.00;;;10.07;;
69260;SDS011;56378;52.404;20.816;2023-03-23T06:47:56;21.75;;;10.57;;
69260;SDS011;56378;52.404;20.816;2023-03-23T06:50:22;18.60;;;9.33;;
69260;SDS011;56378;52.404;20.816;2023-03-23T06:52:49;21.00;;;10.00;;
69260;SDS011;56378;52.404;20.816;2023-03-23T06:55:16;19.05;;;9.85;;
69260;SDS011;56378;52.404;20.816;2023-03-23T06:57:43;19.30;;;10.10;;
69260;SDS011;56378;52.404;20.816;2023-03-23T07:00:10;18.23;;;10.20;;
69260;SDS011;56378;52.404;20.816;2023-03-23T07:02:38;19.90;;;10.13;;
69260;SDS011;56378;52.404;20.816;2023-03-23T07:05:05;21.55;;;10.52;;
69260;SDS011;56378;52.404;20.816;2023-03-23T07:07:34;19.70;;;10.00;;
69260;SDS011;56378;52.404;20.816;2023-03-23T07:10:01;21.95;;;9.38;;
69260;SDS011;56378;52.404;20.816;2023-03-23T07:12:27;18.77;;;9.57;;
69260;SDS011;56378;52.404;20.816;2023-03-23T07:14:53;18.30;;;9.67;;
69260;SDS011;56378;52.404;20.816;2023-03-23T07:17:19;18.08;;;9.25;;
69260;SDS011;56378;52.404;20.816;2023-03-23T07:19:45;16.52;;;8.75;;
69260;SDS011;56378;52.404;20.816;2023-03-23T07:22:11;17.03;;;9.20;;
69260;SDS011;56378;52.404;20.816;2023-03-23T07:24:37;19.55;;;9.40;;
69260;SDS011;56378;52.404;20.816;2023-03-23T07:27:02;15.40;;;8.33;;
69260;SDS011;56378;52.404;20.816;2023-03-23T07:29:28;14.90;;;8.13;;
69260;SDS011;56378;52.404;20.816;2023-03-23T07:31:54;15.60;;;8.68;;
69260;SDS011;56378;52.404;20.816;2023-03-23T07:34:20;14.17;;;8.07;;
69260;SDS011;56378;52.404;20.816;2023-03-23T07:36:46;13.43;;;7.90;;
69260;SDS011;56378;52.404;20.816;2023-03-23T07:39:12;14.80;;;8.17;;
69260;SDS011;56378;52.404;20.816;2023-03-23T07:41:38;16.38;;;8.40;;
69260;SDS011;56378;52.404;20.816;2023-03-23T07:44:04;15.75;;;7.57;;
69260;SDS011;56378;52.404;20.816;2023-03-23T07:46:31;16.35;;;7.35;;
69260;SDS011;56378;52.404;20.816;2023-03-23T07:48:58;13.50;;;7.23;;
69260;SDS011;56378;52.404;20.816;2023-03-23T07:51:25;12.32;;;7.65;;
69260;SDS011;56378;52.404;20.816;2023-03-23T07:53:50;14.25;;;7.63;;
69260;SDS011;56378;52.404;20.816;2023-03-23T07:56:16;12.43;;;7.10;;
69260;SDS011;56378;52.404;20.816;2023-03-23T07:58:45;15.65;;;7.30;;
69260;SDS011;56378;52.404;20.816;2023-03-23T08:01:11;14.05;;;6.70;;
69260;SDS011;56378;52.404;20.816;2023-03-23T08:03:37;13.65;;;6.93;;
69260;SDS011;56378;52.404;20.816;2023-03-23T08:06:03;11.47;;;6.93;;
69260;SDS011;56378;52.404;20.816;2023-03-23T08:08:30;13.00;;;6.35;;
69260;SDS011;56378;52.404;20.816;2023-03-23T08:10:56;11.32;;;6.47;;
69260;SDS011;56378;52.404;20.816;2023-03-23T08:13:22;18.05;;;6.75;;
69260;SDS011;56378;52.404;20.816;2023-03-23T08:15:48;13.50;;;6.57;;
69260;SDS011;56378;52.404;20.816;2023-03-23T08:18:14;13.80;;;6.43;;
69260;SDS011;56378;52.404;20.816;2023-03-23T08:20:40;12.18;;;6.00;;
69260;SDS011;56378;52.404;20.816;2023-03-23T08:23:07;13.20;;;6.53;;
69260;SDS011;56378;52.404;20.816;2023-03-23T08:25:33;12.57;;;6.23;;
69260;SDS011;56378;52.404;20.816;2023-03-23T08:28:00;12.52;;;6.20;;
69260;SDS011;56378;52.404;20.816;2023-03-23T08:30:26;12.18;;;5.95;;
69260;SDS011;56378;52.404;20.816;2023-03-23T08:32:55;13.10;;;6.00;;
69260;SDS011;56378;52.404;20.816;2023-03-23T08:35:25;12.57;;;6.00;;
69260;SDS011;56378;52.404;20.816;2023-03-23T08:37:51;13.23;;;5.60;;
69260;SDS011;56378;52.404;20.816;2023-03-23T08:40:18;10.85;;;5.68;;
69260;SDS011;56378;52.404;20.816;2023-03-23T08:42:46;11.40;;;5.68;;
69260;SDS011;56378;52.404;20.816;2023-03-23T08:45:14;12.82;;;5.63;;
69260;SDS011;56378;52.404;20.816;2023-03-23T08:47:43;11.00;;;5.43;;
69260;SDS011;56378;52.404;20.816;2023-03-23T08:50:11;11.07;;;6.18;;
69260;SDS011;56378;52.404;20.816;2023-03-23T08:52:38;14.68;;;5.78;;
69260;SDS011;56378;52.404;20.816;2023-03-23T08:55:04;11.70;;;5.70;;
69260;SDS011;56378;52.404;20.816;2023-03-23T08:57:33;13.13;;;5.13;;
69260;SDS011;56378;52.404;20.816;2023-03-23T09:00:01;12.68;;;5.60;;
69260;SDS011;56378;52.404;20.816;2023-03-23T09:02:39;10.65;;;5.13;;
69260;SDS011;56378;52.404;20.816;2023-03-23T09:05:07;11.15;;;5.40;;
69260;SDS011;56378;52.404;20.816;2023-03-23T09:07:35;10.50;;;5.10;;
69260;SDS011;56378;52.404;20.816;2023-03-23T09:10:05;12.57;;;5.50;;
69260;SDS011;56378;52.404;20.816;2023-03-23T09:12:31;10.88;;;4.65;;
69260;SDS011;56378;52.404;20.816;2023-03-23T09:14:57;11.30;;;3.97;;
69260;SDS011;56378;52.404;20.816;2023-03-23T09:17:23;9.63;;;5.43;;
69260;SDS011;56378;52.404;20.816;2023-03-23T09:19:48;11.50;;;5.00;;
69260;SDS011;56378;52.404;20.816;2023-03-23T09:22:14;10.35;;;5.15;;
69260;SDS011;56378;52.404;20.816;2023-03-23T09:24:44;9.85;;;4.78;;
69260;SDS011;56378;52.404;20.816;2023-03-23T09:27:11;9.68;;;5.30;;
69260;SDS011;56378;52.404;20.816;2023-03-23T09:29:37;9.77;;;5.43;;
69260;SDS011;56378;52.404;20.816;2023-03-23T09:32:03;12.15;;;5.53;;
69260;SDS011;56378;52.404;20.816;2023-03-23T09:34:29;11.85;;;4.90;;
69260;SDS011;56378;52.404;20.816;2023-03-23T09:36:54;9.70;;;5.87;;
69260;SDS011;56378;52.404;20.816;2023-03-23T09:39:20;10.32;;;4.97;;
69260;SDS011;56378;52.404;20.816;2023-03-23T09:52:37;11.43;;;5.50;;
69260;SDS011;56378;52.404;20.816;2023-03-23T09:55:14;11.53;;;4.83;;
69260;SDS011;56378;52.404;20.816;2023-03-23T10:00:55;9.02;;;4.38;;
69260;SDS011;56378;52.404;20.816;2023-03-23T10:03:38;8.25;;;3.97;;
69260;SDS011;56378;52.404;20.816;2023-03-23T10:06:07;7.82;;;4.13;;
69260;SDS011;56378;52.404;20.816;2023-03-23T10:08:37;7.70;;;4.03;;
69260;SDS011;56378;52.404;20.816;2023-03-23T10:16:55;7.80;;;3.35;;
69260;SDS011;56378;52.404;20.816;2023-03-23T10:19:34;7.80;;;3.60;;
69260;SDS011;56378;52.404;20.816;2023-03-23T10:22:10;9.30;;;3.90;;
69260;SDS011;56378;52.404;20.816;2023-03-23T10:24:41;8.27;;;3.40;;
69260;SDS011;56378;52.404;20.816;2023-03-23T10:27:19;7.88;;;3.28;;
69260;SDS011;56378;52.404;20.816;2023-03-23T10:29:57;6.95;;;3.50;;
69260;SDS011;56378;52.404;20.816;2023-03-23T10:32:58;8.18;;;3.00;;
69260;SDS011;56378;52.404;20.816;2023-03-23T10:35:29;7.33;;;3.20;;
69260;SDS011;56378;52.404;20.816;2023-03-23T10:38:04;8.38;;;3.35;;
69260;SDS011;56378;52.404;20.816;2023-03-23T10:40:34;5.55;;;3.00;;
69260;SDS011;56378;52.404;20.816;2023-03-23T10:43:10;9.43;;;3.10;;
69260;SDS011;56378;52.404;20.816;2023-03-23T10:45:36;7.67;;;3.37;;
69260;SDS011;56378;52.404;20.816;2023-03-23T10:48:09;7.32;;;3.42;;
69260;SDS011;56378;52.404;20.816;2023-03-23T10:50:40;5.90;;;3.10;;
69260;SDS011;56378;52.404;20.816;2023-03-23T10:53:15;8.38;;;3.35;;
69260;SDS011;56378;52.404;20.816;2023-03-23T10:55:44;6.38;;;3.00;;
69260;SDS011;56378;52.404;20.816;2023-03-23T10:58:12;8.73;;;3.30;;
69260;SDS011;56378;52.404;20.816;2023-03-23T11:00:47;9.43;;;3.00;;
69260;SDS011;56378;52.404;20.816;2023-03-23T11:05:43;7.53;;;3.80;;
69260;SDS011;56378;52.404;20.816;2023-03-23T11:08:17;6.73;;;3.20;;
69260;SDS011;56378;52.404;20.816;2023-03-23T11:10:56;8.23;;;3.72;;
69260;SDS011;56378;52.404;20.816;2023-03-23T11:13:31;6.65;;;4.03;;
69260;SDS011;56378;52.404;20.816;2023-03-23T11:15:57;6.40;;;3.42;;
69260;SDS011;56378;52.404;20.816;2023-03-23T11:18:25;8.90;;;4.18;;
69260;SDS011;56378;52.404;20.816;2023-03-23T11:20:59;8.23;;;4.67;;
69260;SDS011;56378;52.404;20.816;2023-03-23T11:23:35;9.65;;;4.60;;
69260;SDS011;56378;52.404;20.816;2023-03-23T11:28:45;8.07;;;4.18;;
69260;SDS011;56378;52.404;20.816;2023-03-23T11:31:31;10.30;;;4.30;;
69260;SDS011;56378;52.404;20.816;2023-03-23T11:34:03;8.18;;;3.78;;
69260;SDS011;56378;52.404;20.816;2023-03-23T11:36:36;8.65;;;3.30;;
69260;SDS011;56378;52.404;20.816;2023-03-23T11:42:01;7.47;;;3.33;;
69260;SDS011;56378;52.404;20.816;2023-03-23T11:44:47;6.97;;;2.90;;
69260;SDS011;56378;52.404;20.816;2023-03-23T11:49:55;7.13;;;3.00;;
69260;SDS011;56378;52.404;20.816;2023-03-23T11:55:12;7.10;;;3.35;;
69260;SDS011;56378;52.404;20.816;2023-03-23T11:57:44;6.67;;;3.30;;
69260;SDS011;56378;52.404;20.816;2023-03-23T12:00:16;10.95;;;3.53;;
69260;SDS011;56378;52.404;20.816;2023-03-23T12:02:55;6.22;;;3.10;;
69260;SDS011;56378;52.404;20.816;2023-03-23T12:06:01;5.63;;;2.70;;
69260;SDS011;56378;52.404;20.816;2023-03-23T12:11:24;5.72;;;3.10;;
69260;SDS011;56378;52.404;20.816;2023-03-23T12:14:59;6.75;;;3.20;;
69260;SDS011;56378;52.404;20.816;2023-03-23T12:17:19;10.43;;;3.20;;
69260;SDS011;56378;52.404;20.816;2023-03-23T12:19:50;6.68;;;4.18;;
69260;SDS011;56378;52.404;20.816;2023-03-23T12:22:28;7.63;;;3.67;;
69260;SDS011;56378;52.404;20.816;2023-03-23T12:42:43;7.47;;;3.00;;
69260;SDS011;56378;52.404;20.816;2023-03-23T12:47:40;7.15;;;2.70;;
69260;SDS011;56378;52.404;20.816;2023-03-23T12:50:16;4.77;;;2.30;;
69260;SDS011;56378;52.404;20.816;2023-03-23T12:53:09;6.88;;;2.30;;
69260;SDS011;56378;52.404;20.816;2023-03-23T12:55:43;5.43;;;2.53;;
69260;SDS011;56378;52.404;20.816;2023-03-23T12:58:20;7.05;;;2.70;;
69260;SDS011;56378;52.404;20.816;2023-03-23T13:06:44;3.10;;;1.90;;
69260;SDS011;56378;52.404;20.816;2023-03-23T13:11:42;4.50;;;1.90;;
69260;SDS011;56378;52.404;20.816;2023-03-23T13:14:18;5.35;;;1.80;;
69260;SDS011;56378;52.404;20.816;2023-03-23T13:20:13;4.80;;;2.03;;
69260;SDS011;56378;52.404;20.816;2023-03-23T13:25:51;4.57;;;2.20;;
69260;SDS011;56378;52.404;20.816;2023-03-23T13:28:23;6.40;;;2.17;;
69260;SDS011;56378;52.404;20.816;2023-03-23T13:31:15;5.90;;;2.20;;
69260;SDS011;56378;52.404;20.816;2023-03-23T13:33:46;7.93;;;2.33;;
69260;SDS011;56378;52.404;20.816;2023-03-23T13:36:16;4.07;;;2.10;;
69260;SDS011;56378;52.404;20.816;2023-03-23T13:38:51;4.55;;;2.08;;
69260;SDS011;56378;52.404;20.816;2023-03-23T13:41:18;5.05;;;2.10;;
69260;SDS011;56378;52.404;20.816;2023-03-23T13:43:46;6.10;;;2.13;;
69260;SDS011;56378;52.404;20.816;2023-03-23T13:57:00;7.03;;;2.67;;
69260;SDS011;56378;52.404;20.816;2023-03-23T13:59:35;5.93;;;2.53;;
69260;SDS011;56378;52.404;20.816;2023-03-23T14:02:29;5.00;;;2.25;;
69260;SDS011;56378;52.404;20.816;2023-03-23T14:05:49;7.53;;;2.33;;
69260;SDS011;56378;52.404;20.816;2023-03-23T14:13:28;5.00;;;2.45;;
69260;SDS011;56378;52.404;20.816;2023-03-23T14:16:02;6.47;;;3.00;;
69260;SDS011;56378;52.404;20.816;2023-03-23T14:18:31;7.68;;;2.97;;
69260;SDS011;56378;52.404;20.816;2023-03-23T14:21:04;7.03;;;2.92;;
69260;SDS011;56378;52.404;20.816;2023-03-23T14:23:32;5.83;;;3.13;;
69260;SDS011;56378;52.404;20.816;2023-03-23T14:26:02;8.00;;;3.65;;
69260;SDS011;56378;52.404;20.816;2023-03-23T14:28:39;10.63;;;3.85;;
69260;SDS011;56378;52.404;20.816;2023-03-23T14:31:14;6.35;;;3.15;;
69260;SDS011;56378;52.404;20.816;2023-03-23T14:33:41;7.45;;;3.30;;
69260;SDS011;56378;52.404;20.816;2023-03-23T14:36:07;6.57;;;3.10;;
69260;SDS011;56378;52.404;20.816;2023-03-23T14:38:33;9.52;;;3.30;;
69260;SDS011;56378;52.404;20.816;2023-03-23T14:41:00;8.23;;;3.25;;
69260;SDS011;56378;52.404;20.816;2023-03-23T14:43:29;6.35;;;3.10;;
69260;SDS011;56378;52.404;20.816;2023-03-23T14:46:00;7.17;;;3.10;;
69260;SDS011;56378;52.404;20.816;2023-03-23T14:48:29;8.52;;;3.60;;
69260;SDS011;56378;52.404;20.816;2023-03-23T14:50:56;6.03;;;2.80;;
69260;SDS011;56378;52.404;20.816;2023-03-23T14:55:52;9.05;;;2.97;;
69260;SDS011;56378;52.404;20.816;2023-03-23T14:58:20;5.70;;;2.70;;
69260;SDS011;56378;52.404;20.816;2023-03-23T15:00:58;8.85;;;3.65;;
69260;SDS011;56378;52.404;20.816;2023-03-23T15:03:28;7.60;;;3.22;;
69260;SDS011;56378;52.404;20.816;2023-03-23T15:06:01;8.40;;;3.78;;
69260;SDS011;56378;52.404;20.816;2023-03-23T15:08:31;10.73;;;3.10;;
69260;SDS011;56378;52.404;20.816;2023-03-23T15:13:44;6.70;;;2.78;;
69260;SDS011;56378;52.404;20.816;2023-03-23T15:16:19;9.07;;;2.90;;
69260;SDS011;56378;52.404;20.816;2023-03-23T15:18:55;7.95;;;3.00;;
69260;SDS011;56378;52.404;20.816;2023-03-23T15:23:56;5.90;;;2.90;;
69260;SDS011;56378;52.404;20.816;2023-03-23T15:26:24;7.35;;;2.80;;
69260;SDS011;56378;52.404;20.816;2023-03-23T15:29:00;6.22;;;2.90;;
69260;SDS011;56378;52.404;20.816;2023-03-23T15:31:29;8.10;;;3.30;;
69260;SDS011;56378;52.404;20.816;2023-03-23T15:33:57;7.50;;;3.13;;
69260;SDS011;56378;52.404;20.816;2023-03-23T15:36:31;9.85;;;3.40;;
69260;SDS011;56378;52.404;20.816;2023-03-23T15:38:59;8.50;;;3.35;;
69260;SDS011;56378;52.404;20.816;2023-03-23T15:41:27;8.07;;;3.20;;
69260;SDS011;56378;52.404;20.816;2023-03-23T15:43:58;6.68;;;2.80;;
69260;SDS011;56378;52.404;20.816;2023-03-23T15:46:38;6.73;;;3.00;;
69260;SDS011;56378;52.404;20.816;2023-03-23T15:49:16;7.22;;;3.50;;
69260;SDS011;56378;52.404;20.816;2023-03-23T15:51:42;8.77;;;3.90;;
69260;SDS011;56378;52.404;20.816;2023-03-23T15:54:17;10.33;;;3.20;;
69260;SDS011;56378;52.404;20.816;2023-03-23T15:56:43;7.23;;;3.30;;
69260;SDS011;56378;52.404;20.816;2023-03-23T15:59:09;9.68;;;3.35;;
69260;SDS011;56378;52.404;20.816;2023-03-23T16:01:36;9.45;;;3.30;;
69260;SDS011;56378;52.404;20.816;2023-03-23T16:04:05;8.20;;;2.90;;
69260;SDS011;56378;52.404;20.816;2023-03-23T16:06:32;7.95;;;3.40;;
69260;SDS011;56378;52.404;20.816;2023-03-23T16:08:59;8.30;;;2.90;;
69260;SDS011;56378;52.404;20.816;2023-03-23T16:11:26;8.18;;;3.00;;
69260;SDS011;56378;52.404;20.816;2023-03-23T16:13:53;7.93;;;3.50;;
69260;SDS011;56378;52.404;20.816;2023-03-23T16:18:51;9.02;;;3.83;;
69260;SDS011;56378;52.404;20.816;2023-03-23T16:21:16;9.67;;;4.30;;
69260;SDS011;56378;52.404;20.816;2023-03-23T16:23:42;9.88;;;3.90;;
69260;SDS011;56378;52.404;20.816;2023-03-23T16:26:10;8.10;;;3.90;;
69260;SDS011;56378;52.404;20.816;2023-03-23T16:28:37;11.13;;;4.68;;
69260;SDS011;56378;52.404;20.816;2023-03-23T16:31:03;11.57;;;4.85;;
69260;SDS011;56378;52.404;20.816;2023-03-23T16:33:29;8.95;;;4.40;;